Time;durP1;ratioP1;P1;durP2;ratioP2;P2;SDS_P1;SDS_P2;PMS_P1;PMS_P2;Temp;Humidity;BMP_temperature;BMP_pressure;BME280_temperature;BME280_humidity;BME280_pressure;Samples;Min_cycle;Max_cycle;Signal;HPM_P1;HPM_P2
2023/08/21 00:00:46;;;;;;;;;;;;;;;17.46;100.00;102250.75;5066906;28;19956;-71
2023/08/21 00:03:11;;;;;;;;;;;;;;;17.45;100.00;102246.31;5045604;28;19921;-71
2023/08/21 00:05:37;;;;;;;;;;;;;;;17.36;100.00;102251.53;5034034;28;19925;-71
2023/08/21 00:08:02;;;;;;;;;;;;;;;17.29;100.00;102252.19;5046260;28;19932;-70
2023/08/21 00:10:27;;;;;;;;;;;;;;;17.19;100.00;102246.66;5034462;28;19933;-71
2023/08/21 00:12:52;;;;;;;;;;;;;;;17.15;100.00;102242.47;5031635;28;19928;-71
2023/08/21 00:15:18;;;;;;;;;;;;;;;17.14;100.00;102241.63;5031645;28;19925;-71
2023/08/21 00:17:43;;;;;;;;;;;;;;;17.08;100.00;102243.00;5072758;28;19971;-71
2023/08/21 00:20:09;;;;;;;;;;;;;;;16.92;100.00;102253.38;5063049;28;19975;-71
2023/08/21 00:22:34;;;;;;;;;;;;;;;16.81;100.00;102254.25;5035118;28;20438;-71
2023/08/21 00:25:00;;;;;;;;;;;;;;;16.80;100.00;102257.97;5035136;28;19921;-71
2023/08/21 00:27:25;;;;;;;;;;;;;;;16.82;100.00;102247.84;5034806;28;19959;-71
2023/08/21 00:29:50;;;;;;;;;;;;;;;16.86;100.00;102249.31;5051297;28;20007;-71
2023/08/21 00:32:15;;;;;;;;;;;;;;;16.85;100.00;102246.72;5038400;28;19952;-71
2023/08/21 00:34:41;;;;;;;;;;;;;;;16.86;100.00;102241.19;5031355;28;19927;-71
2023/08/21 00:37:06;;;;;;;;;;;;;;;16.87;100.00;102245.63;5037475;28;20351;-71
2023/08/21 00:39:31;;;;;;;;;;;;;;;16.77;100.00;102229.25;5038536;28;20583;-71
2023/08/21 00:41:56;;;;;;;;;;;;;;;16.81;100.00;102248.84;5019723;28;19924;-71
2023/08/21 00:44:22;;;;;;;;;;;;;;;16.79;100.00;102242.66;5037981;28;19999;-71
2023/08/21 00:46:47;;;;;;;;;;;;;;;16.73;100.00;102249.47;5065697;28;19917;-71
2023/08/21 00:49:12;;;;;;;;;;;;;;;16.77;100.00;102247.34;5031382;28;20431;-71
2023/08/21 00:51:37;;;;;;;;;;;;;;;16.88;100.00;102241.03;5034588;28;19916;-71
2023/08/21 00:54:03;;;;;;;;;;;;;;;16.95;100.00;102236.84;5041089;28;19925;-71
2023/08/21 00:56:28;;;;;;;;;;;;;;;16.99;100.00;102241.06;5036313;28;19925;-71
2023/08/21 00:58:54;;;;;;;;;;;;;;;16.98;100.00;102230.31;5031057;28;20149;-71
2023/08/21 01:01:19;;;;;;;;;;;;;;;16.87;100.00;102228.47;5031838;28;19921;-71
2023/08/21 01:03:44;;;;;;;;;;;;;;;16.76;100.00;102234.78;5032196;28;19975;-71
2023/08/21 01:06:09;;;;;;;;;;;;;;;16.67;100.00;102228.28;5032595;28;20039;-71
2023/08/21 01:08:37;;;;;;;;;;;;;;;16.57;100.00;102205.59;5028901;28;19931;-71
2023/08/21 01:11:06;;;;;;;;;;;;;;;16.73;100.00;102240.44;5035092;28;19924;-71
2023/08/21 01:13:37;;;;;;;;;;;;;;;16.64;100.00;102239.38;5037164;28;19923;-71
2023/08/21 01:16:02;;;;;;;;;;;;;;;16.58;100.00;102242.56;5034304;28;20402;-71
2023/08/21 01:18:27;;;;;;;;;;;;;;;16.60;100.00;102241.47;5059758;28;19925;-71
2023/08/21 01:20:52;;;;;;;;;;;;;;;16.62;100.00;102242.22;5038136;28;19924;-71
2023/08/21 01:23:30;;;;;;;;;;;;;;;16.67;100.00;102243.69;5065061;28;19994;-71
2023/08/21 01:25:56;;;;;;;;;;;;;;;16.71;100.00;102242.44;5031259;28;20371;-71
2023/08/21 01:28:21;;;;;;;;;;;;;;;16.60;100.00;102224.31;5034773;28;19921;-71
2023/08/21 01:30:46;;;;;;;;;;;;;;;16.75;100.00;102241.19;5035508;28;19931;-71
2023/08/21 01:33:12;;;;;;;;;;;;;;;16.66;100.00;102233.84;5035550;28;20259;-71
2023/08/21 01:35:38;;;;;;;;;;;;;;;16.63;100.00;102238.53;5047157;28;19944;-71
2023/08/21 01:38:03;;;;;;;;;;;;;;;16.66;100.00;102237.41;5070793;28;20387;-71
2023/08/21 01:40:28;;;;;;;;;;;;;;;16.73;100.00;102237.75;5051861;28;20438;-71
2023/08/21 01:42:54;;;;;;;;;;;;;;;16.86;100.00;102243.03;5034257;28;20003;-71
2023/08/21 01:45:19;;;;;;;;;;;;;;;16.92;100.00;102239.81;5043382;28;20018;-71
2023/08/21 01:47:44;;;;;;;;;;;;;;;16.87;100.00;102240.19;5063963;28;20495;-71
2023/08/21 01:50:09;;;;;;;;;;;;;;;16.76;100.00;102241.09;5030672;28;20615;-71
2023/08/21 01:52:35;;;;;;;;;;;;;;;16.81;100.00;102240.69;5029614;28;19932;-71
2023/08/21 01:55:00;;;;;;;;;;;;;;;16.86;100.00;102240.31;5020676;28;19948;-70
2023/08/21 01:57:25;;;;;;;;;;;;;;;16.90;100.00;102236.34;5032137;28;20027;-71
2023/08/21 01:59:50;;;;;;;;;;;;;;;16.86;100.00;102235.75;5032641;28;19921;-71
2023/08/21 02:02:15;;;;;;;;;;;;;;;16.73;100.00;102237.75;5034008;28;19927;-71
2023/08/21 02:04:41;;;;;;;;;;;;;;;16.71;100.00;102234.28;5067809;28;19918;-71
2023/08/21 02:07:07;;;;;;;;;;;;;;;16.70;100.00;102232.56;5032427;28;20259;-71
2023/08/21 02:09:32;;;;;;;;;;;;;;;16.65;100.00;102230.25;5038217;28;19940;-71
2023/08/21 02:11:57;;;;;;;;;;;;;;;16.59;100.00;102230.75;5046135;28;19921;-71
2023/08/21 02:14:22;;;;;;;;;;;;;;;16.57;100.00;102230.88;5049946;28;19921;-71
2023/08/21 02:16:48;;;;;;;;;;;;;;;16.58;100.00;102229.88;5065865;28;19921;-71
2023/08/21 02:19:13;;;;;;;;;;;;;;;16.47;100.00;102232.59;5033064;28;19986;-71
2023/08/21 02:21:38;;;;;;;;;;;;;;;16.38;100.00;102234.22;5066078;28;19932;-71
2023/08/21 02:24:03;;;;;;;;;;;;;;;16.35;100.00;102234.47;5062950;28;19921;-71
2023/08/21 02:26:29;;;;;;;;;;;;;;;16.32;100.00;102237.41;5034481;28;19968;-70
2023/08/21 02:28:54;;;;;;;;;;;;;;;16.31;100.00;102235.69;5049115;28;20012;-71
2023/08/21 02:31:19;;;;;;;;;;;;;;;16.25;100.00;102226.22;5064898;28;19923;-70
2023/08/21 02:33:44;;;;;;;;;;;;;;;16.21;100.00;102235.56;5049152;28;19927;-71
2023/08/21 02:36:09;;;;;;;;;;;;;;;16.21;100.00;102238.28;5062506;28;20356;-71
2023/08/21 02:38:35;;;;;;;;;;;;;;;16.20;100.00;102233.84;5035760;28;20390;-71
2023/08/21 02:41:00;;;;;;;;;;;;;;;16.18;100.00;102233.97;5048967;28;20032;-71
2023/08/21 02:43:25;;;;;;;;;;;;;;;16.19;100.00;102240.25;5032182;28;19928;-71
2023/08/21 02:45:50;;;;;;;;;;;;;;;16.15;100.00;102227.94;5030694;28;19920;-71
2023/08/21 02:48:16;;;;;;;;;;;;;;;16.23;100.00;102241.72;5032124;28;19967;-71
2023/08/21 02:50:41;;;;;;;;;;;;;;;16.26;100.00;102235.22;5056967;28;20003;-71
2023/08/21 02:53:07;;;;;;;;;;;;;;;16.24;100.00;102235.31;5048417;28;20242;-71
2023/08/21 02:55:32;;;;;;;;;;;;;;;16.19;100.00;102232.09;5026606;28;19925;-71
2023/08/21 02:57:57;;;;;;;;;;;;;;;16.07;100.00;102236.66;5027169;28;20021;-71
2023/08/21 03:00:22;;;;;;;;;;;;;;;16.06;100.00;102236.78;5028266;28;22005;-71
2023/08/21 03:02:48;;;;;;;;;;;;;;;16.13;100.00;102247.03;5059824;28;19917;-71
2023/08/21 03:05:14;;;;;;;;;;;;;;;16.19;100.00;102242.94;5028269;28;19921;-71
2023/08/21 03:07:39;;;;;;;;;;;;;;;16.22;100.00;102241.88;5057600;28;19921;-70
2023/08/21 03:10:05;;;;;;;;;;;;;;;16.34;100.00;102241.75;5029944;28;20634;-70
2023/08/21 03:12:30;;;;;;;;;;;;;;;16.43;100.00;102245.56;5026099;28;19966;-70
2023/08/21 03:14:55;;;;;;;;;;;;;;;16.51;100.00;102246.78;5029176;28;20278;-71
2023/08/21 03:17:20;;;;;;;;;;;;;;;16.56;100.00;102252.69;5044398;28;20429;-71
2023/08/21 03:19:46;;;;;;;;;;;;;;;16.66;100.00;102252.81;5031528;28;20350;-71
2023/08/21 03:22:11;;;;;;;;;;;;;;;16.74;100.00;102253.91;5066796;28;19924;-70
2023/08/21 03:24:36;;;;;;;;;;;;;;;16.88;100.00;102255.47;5035848;28;19971;-71
2023/08/21 03:27:02;;;;;;;;;;;;;;;16.92;100.00;102239.81;5052098;28;20020;-71
2023/08/21 03:29:27;;;;;;;;;;;;;;;16.90;100.00;102248.09;5038003;28;20282;-71
2023/08/21 03:31:53;;;;;;;;;;;;;;;16.88;100.00;102241.91;5031372;28;19928;-71
2023/08/21 03:34:18;;;;;;;;;;;;;;;16.68;100.00;102238.13;5068742;28;19929;-71
2023/08/21 03:36:43;;;;;;;;;;;;;;;16.47;100.00;102230.78;5017994;28;19938;-71
2023/08/21 03:39:09;;;;;;;;;;;;;;;16.40;100.00;102234.09;5074054;28;19921;-71
2023/08/21 03:41:34;;;;;;;;;;;;;;;16.36;100.00;102240.75;5040309;28;20016;-71
2023/08/21 03:43:59;;;;;;;;;;;;;;;16.36;100.00;102243.47;5035905;28;19960;-70
2023/08/21 03:46:24;;;;;;;;;;;;;;;16.37;100.00;102242.47;5052030;28;20031;-71
2023/08/21 03:48:50;;;;;;;;;;;;;;;16.38;100.00;102244.22;5035082;28;19921;-71
2023/08/21 03:51:15;;;;;;;;;;;;;;;16.36;100.00;102240.75;5068532;28;19923;-71
2023/08/21 03:53:40;;;;;;;;;;;;;;;16.41;100.00;102246.69;5033584;28;19921;-71
2023/08/21 03:56:06;;;;;;;;;;;;;;;16.44;100.00;102247.28;5031693;28;19956;-71
2023/08/21 03:58:31;;;;;;;;;;;;;;;16.45;100.00;102240.00;5034332;28;20442;-71
2023/08/21 04:00:56;;;;;;;;;;;;;;;16.50;100.00;102235.06;5039048;28;20466;-70
2023/08/21 04:03:22;;;;;;;;;;;;;;;16.48;100.00;102237.91;5034846;28;19920;-71
2023/08/21 04:05:47;;;;;;;;;;;;;;;16.39;100.00;102235.09;5027127;28;19986;-71
2023/08/21 04:08:12;;;;;;;;;;;;;;;16.31;100.00;102235.69;5027295;28;19971;-71
2023/08/21 04:10:38;;;;;;;;;;;;;;;16.23;100.00;102238.16;5061726;28;19917;-70
2023/08/21 04:13:03;;;;;;;;;;;;;;;16.17;100.00;102243.09;5026402;28;19920;-71
2023/08/21 04:15:29;;;;;;;;;;;;;;;16.07;100.00;102244.78;5031333;28;19970;-71
2023/08/21 04:17:54;;;;;;;;;;;;;;;15.90;100.00;102235.28;5035500;28;20363;-71
2023/08/21 04:20:19;;;;;;;;;;;;;;;15.86;100.00;102245.50;5060563;28;19956;-71
2023/08/21 04:22:45;;;;;;;;;;;;;;;15.85;100.00;102251.03;5029923;28;20019;-71
2023/08/21 04:25:11;;;;;;;;;;;;;;;15.83;100.00;102251.13;5032404;28;20009;-71
2023/08/21 04:27:36;;;;;;;;;;;;;;;15.87;100.00;102251.78;5043722;28;19932;-71
2023/08/21 04:30:01;;;;;;;;;;;;;;;15.94;100.00;102254.88;5042816;28;19968;-71
2023/08/21 04:32:27;;;;;;;;;;;;;;;15.99;100.00;102255.38;5031362;28;19947;-71
2023/08/21 04:34:52;;;;;;;;;;;;;;;16.04;100.00;102253.16;5046315;28;19962;-71
2023/08/21 04:37:18;;;;;;;;;;;;;;;16.03;100.00;102249.59;5067241;28;20195;-71
2023/08/21 04:39:43;;;;;;;;;;;;;;;16.01;100.00;102259.69;5058986;28;20015;-71
2023/08/21 04:42:09;;;;;;;;;;;;;;;16.05;100.00;102254.88;5030450;28;20208;-71
2023/08/21 04:44:34;;;;;;;;;;;;;;;16.08;100.00;102257.34;5036386;28;19924;-71
2023/08/21 04:47:14;;;;;;;;;;;;;;;16.09;100.00;102260.94;5031964;28;19917;-71
2023/08/21 04:49:39;;;;;;;;;;;;;;;16.13;100.00;102260.56;5032843;28;20252;-71
2023/08/21 04:52:04;;;;;;;;;;;;;;;16.21;100.00;102268.06;5037160;28;20295;-71
2023/08/21 04:54:29;;;;;;;;;;;;;;;16.29;100.00;102272.88;5019747;28;20354;-71
2023/08/21 04:56:55;;;;;;;;;;;;;;;16.35;100.00;102266.97;5027530;28;19921;-71
2023/08/21 04:59:20;;;;;;;;;;;;;;;16.37;100.00;102259.59;5030560;28;19948;-71
2023/08/21 05:01:45;;;;;;;;;;;;;;;16.40;100.00;102261.22;5031735;28;20012;-71
2023/08/21 05:04:10;;;;;;;;;;;;;;;16.41;100.00;102262.94;5027958;28;19927;-71
2023/08/21 05:06:35;;;;;;;;;;;;;;;16.44;100.00;102266.25;5061619;28;19920;-71
2023/08/21 05:09:01;;;;;;;;;;;;;;;16.42;100.00;102270.09;5046301;28;19971;-71
2023/08/21 05:11:26;;;;;;;;;;;;;;;16.42;100.00;102267.38;5031118;28;20011;-71
2023/08/21 05:13:51;;;;;;;;;;;;;;;16.37;100.00;102275.84;5031511;28;20168;-71
2023/08/21 05:16:16;;;;;;;;;;;;;;;16.26;100.00;102276.72;5032478;28;19925;-71
2023/08/21 05:18:42;;;;;;;;;;;;;;;16.23;100.00;102282.38;5045878;28;19963;-71
2023/08/21 05:21:07;;;;;;;;;;;;;;;16.33;100.00;102287.91;5063926;28;19974;-71
2023/08/21 05:23:32;;;;;;;;;;;;;;;16.41;100.00;102290.03;5016995;28;19917;-71
2023/08/21 05:25:57;;;;;;;;;;;;;;;16.49;100.00;102291.16;5034937;28;19966;-72
2023/08/21 05:28:22;;;;;;;;;;;;;;;16.63;100.00;102287.31;5035081;28;19924;-71
2023/08/21 05:30:49;;;;;;;;;;;;;;;16.74;100.00;102285.56;5034892;28;19925;-71
2023/08/21 05:33:14;;;;;;;;;;;;;;;16.81;100.00;102291.38;5035489;28;20431;-71
2023/08/21 05:35:39;;;;;;;;;;;;;;;16.86;100.00;102291.84;5049189;28;19920;-71
2023/08/21 05:38:05;;;;;;;;;;;;;;;16.90;100.00;102293.31;5019537;28;19990;-71
2023/08/21 05:40:31;;;;;;;;;;;;;;;16.96;100.00;102290.16;5032428;28;20019;-71
2023/08/21 05:42:56;;;;;;;;;;;;;;;17.07;100.00;102294.69;5058253;28;20326;-71
2023/08/21 05:45:21;;;;;;;;;;;;;;;17.24;100.00;102301.44;5060806;28;19928;-71
2023/08/21 05:47:46;;;;;;;;;;;;;;;17.41;100.00;102300.03;5043440;28;20020;-71
2023/08/21 05:50:11;;;;;;;;;;;;;;;17.58;100.00;102306.75;5065841;28;20007;-72
2023/08/21 05:52:37;;;;;;;;;;;;;;;17.67;100.00;102291.50;5045313;28;19925;-71
2023/08/21 05:55:02;;;;;;;;;;;;;;;17.91;100.00;102307.53;5034359;28;19924;-71
2023/08/21 05:57:27;;;;;;;;;;;;;;;18.04;100.00;102311.97;5057986;28;20277;-71
2023/08/21 05:59:52;;;;;;;;;;;;;;;18.14;100.00;102302.03;5030291;28;19925;-71
2023/08/21 06:02:18;;;;;;;;;;;;;;;18.27;100.00;102304.53;5060641;28;20008;-71
2023/08/21 06:04:43;;;;;;;;;;;;;;;18.43;100.00;102314.88;5047431;28;19925;-71
2023/08/21 06:07:08;;;;;;;;;;;;;;;18.63;100.00;102315.00;5064481;28;20411;-71
2023/08/21 06:09:34;;;;;;;;;;;;;;;18.72;100.00;102308.72;5033510;28;19925;-71
2023/08/21 06:12:00;;;;;;;;;;;;;;;18.80;100.00;102316.22;5044911;28;19971;-71
2023/08/21 06:14:28;;;;;;;;;;;;;;;18.82;100.00;102315.06;5033513;28;19921;-71
2023/08/21 06:16:54;;;;;;;;;;;;;;;18.86;100.00;102310.19;5033523;28;20010;-71
2023/08/21 06:19:19;;;;;;;;;;;;;;;18.95;100.00;102311.22;5033552;28;19932;-71
2023/08/21 06:21:45;;;;;;;;;;;;;;;19.03;100.00;102309.59;5059380;28;19920;-71
2023/08/21 06:24:10;;;;;;;;;;;;;;;19.06;100.00;102316.59;5035237;28;20374;-71
2023/08/21 06:26:35;;;;;;;;;;;;;;;19.02;100.00;102312.44;5033069;28;19968;-71
2023/08/21 06:29:00;;;;;;;;;;;;;;;19.05;100.00;102314.03;5033072;28;20051;-72
2023/08/21 06:31:25;;;;;;;;;;;;;;;19.15;100.00;102314.88;5034933;28;20271;-71
2023/08/21 06:33:51;;;;;;;;;;;;;;;19.26;100.00;102311.19;5035701;28;20271;-71
2023/08/21 06:36:16;;;;;;;;;;;;;;;19.35;100.00;102315.78;5064703;28;20328;-71
2023/08/21 06:38:41;;;;;;;;;;;;;;;19.51;100.00;102312.50;5031937;28;19942;-71
2023/08/21 06:41:06;;;;;;;;;;;;;;;19.56;100.00;102312.06;5034881;28;19917;-71
2023/08/21 06:43:32;;;;;;;;;;;;;;;19.59;100.00;102309.06;5046659;28;19925;-71
2023/08/21 06:45:57;;;;;;;;;;;;;;;19.62;100.00;102303.31;5038177;28;19921;-71
2023/08/21 06:48:23;;;;;;;;;;;;;;;19.70;100.00;102311.66;5039851;28;20014;-71
2023/08/21 06:50:48;;;;;;;;;;;;;;;19.78;100.00;102308.19;5034452;28;20007;-71
2023/08/21 06:53:13;;;;;;;;;;;;;;;19.85;100.00;102316.66;5029982;28;20007;-71
2023/08/21 06:55:38;;;;;;;;;;;;;;;19.90;100.00;102317.94;5066408;28;19925;-71
2023/08/21 06:58:03;;;;;;;;;;;;;;;19.94;100.00;102313.09;5033627;28;19971;-71
2023/08/21 07:00:29;;;;;;;;;;;;;;;20.06;100.00;102319.25;5033487;28;20002;-72
2023/08/21 07:02:54;;;;;;;;;;;;;;;20.06;100.00;102314.63;5032786;28;19999;-71
2023/08/21 07:05:20;;;;;;;;;;;;;;;20.15;100.00;102318.34;5062847;28;19921;-71
2023/08/21 07:07:45;;;;;;;;;;;;;;;20.16;100.00;102317.34;5035605;28;20283;-71
2023/08/21 07:10:10;;;;;;;;;;;;;;;20.24;100.00;102319.34;5033981;28;19917;-71
2023/08/21 07:12:35;;;;;;;;;;;;;;;20.26;100.00;102317.31;5034213;28;19959;-71
2023/08/21 07:15:01;;;;;;;;;;;;;;;20.29;100.00;102317.00;5032020;28;19925;-71
2023/08/21 07:17:26;;;;;;;;;;;;;;;20.21;100.00;102323.22;5034479;28;20552;-71
2023/08/21 07:19:53;;;;;;;;;;;;;;;20.32;100.00;102321.34;5033277;28;21565;-71
2023/08/21 07:22:19;;;;;;;;;;;;;;;20.34;100.00;102322.88;5032549;28;19923;-71
2023/08/21 07:24:44;;;;;;;;;;;;;;;20.36;100.00;102323.59;5033001;28;20379;-71
2023/08/21 07:27:09;;;;;;;;;;;;;;;20.41;100.00;102322.31;5061842;28;20103;-71
2023/08/21 07:29:35;;;;;;;;;;;;;;;20.50;100.00;102322.25;5036050;28;20072;-71
2023/08/21 07:32:01;;;;;;;;;;;;;;;20.60;100.00;102322.22;5032365;28;20748;-71
2023/08/21 07:34:26;;;;;;;;;;;;;;;20.75;100.00;102322.59;5033308;28;19920;-71
2023/08/21 07:36:51;;;;;;;;;;;;;;;20.89;100.00;102318.53;5035988;28;19973;-71
2023/08/21 07:39:16;;;;;;;;;;;;;;;21.02;100.00;102317.31;5034505;28;19921;-71
2023/08/21 07:41:42;;;;;;;;;;;;;;;21.11;100.00;102310.91;5033310;28;19920;-71
2023/08/21 07:44:07;;;;;;;;;;;;;;;21.19;100.00;102311.03;5033645;28;19924;-71
2023/08/21 07:46:32;;;;;;;;;;;;;;;21.22;100.00;102307.97;5033296;28;19928;-71
2023/08/21 07:48:57;;;;;;;;;;;;;;;21.38;100.00;102310.03;5044135;28;19963;-71
2023/08/21 07:51:22;;;;;;;;;;;;;;;21.53;100.00;102312.19;5031549;28;20012;-71
2023/08/21 07:53:48;;;;;;;;;;;;;;;21.66;100.00;102320.91;5033757;28;19916;-71
2023/08/21 07:56:13;;;;;;;;;;;;;;;21.54;100.00;102295.66;5033049;28;20367;-71
2023/08/21 07:58:38;;;;;;;;;;;;;;;21.89;100.00;102325.88;5033872;28;20457;-71
2023/08/21 08:01:04;;;;;;;;;;;;;;;22.11;100.00;102329.97;5031396;28;20469;-71
2023/08/21 08:03:30;;;;;;;;;;;;;;;22.27;100.00;102323.75;5033297;28;19933;-71
2023/08/21 08:05:55;;;;;;;;;;;;;;;22.14;100.00;102326.06;5031027;28;20028;-71
2023/08/21 08:08:20;;;;;;;;;;;;;;;22.11;100.00;102327.25;5033899;28;20011;-71
2023/08/21 08:10:45;;;;;;;;;;;;;;;22.44;100.00;102326.63;5044270;28;19920;-71
2023/08/21 08:13:10;;;;;;;;;;;;;;;22.74;100.00;102332.59;5032874;28;20035;-71
2023/08/21 08:15:36;;;;;;;;;;;;;;;23.14;100.00;102327.44;5059742;28;19927;-71
2023/08/21 08:18:02;;;;;;;;;;;;;;;23.16;100.00;102331.69;5032293;28;19929;-71
2023/08/21 08:20:27;;;;;;;;;;;;;;;23.28;100.00;102331.44;5033036;28;19921;-71
2023/08/21 08:22:52;;;;;;;;;;;;;;;23.27;100.00;102322.34;5052874;28;19959;-71
2023/08/21 08:25:17;;;;;;;;;;;;;;;23.55;100.00;102327.53;5037935;28;20026;-71
2023/08/21 08:27:43;;;;;;;;;;;;;;;23.70;100.00;102324.13;5031801;28;19921;-71
2023/08/21 08:30:08;;;;;;;;;;;;;;;23.64;100.00;102325.63;5035635;28;20003;-71
2023/08/21 08:32:33;;;;;;;;;;;;;;;23.81;100.00;102321.03;5033024;28;19962;-71
2023/08/21 08:34:59;;;;;;;;;;;;;;;23.87;100.00;102314.84;5032145;28;20331;-71
2023/08/21 08:37:24;;;;;;;;;;;;;;;24.10;100.00;102317.75;5033384;28;20983;-70
2023/08/21 08:39:49;;;;;;;;;;;;;;;24.30;100.00;102316.53;5033099;28;19928;-70
2023/08/21 08:42:14;;;;;;;;;;;;;;;24.36;100.00;102321.31;5034521;28;19924;-72
2023/08/21 08:44:41;;;;;;;;;;;;;;;24.54;100.00;102315.59;5044256;28;20678;-71
2023/08/21 08:47:06;;;;;;;;;;;;;;;24.49;100.00;102327.13;5058654;28;20586;-71
2023/08/21 08:49:31;;;;;;;;;;;;;;;24.55;100.00;102323.66;5060702;28;20447;-71
2023/08/21 08:51:57;;;;;;;;;;;;;;;24.68;100.00;102325.00;5044042;28;20318;-70
2023/08/21 08:54:22;;;;;;;;;;;;;;;24.74;94.44;102328.94;5042440;28;19921;-70
2023/08/21 08:56:48;;;;;;;;;;;;;;;24.77;88.91;102323.09;5032421;28;20370;-71
2023/08/21 08:59:14;;;;;;;;;;;;;;;24.92;86.14;102324.03;5033566;28;19962;-70
2023/08/21 09:01:39;;;;;;;;;;;;;;;24.62;92.78;102322.94;5064982;28;19921;-71
2023/08/21 09:04:05;;;;;;;;;;;;;;;24.91;100.00;102321.50;5035156;28;20032;-70
2023/08/21 09:06:30;;;;;;;;;;;;;;;24.79;86.92;102323.78;5033925;28;20004;-69
2023/08/21 09:08:55;;;;;;;;;;;;;;;24.70;88.06;102321.03;5047455;28;19985;-72
2023/08/21 09:11:21;;;;;;;;;;;;;;;24.56;87.93;102319.03;5065364;28;19974;-71
2023/08/21 09:13:48;;;;;;;;;;;;;;;24.51;87.92;102316.81;5063629;28;19917;-71
2023/08/21 09:16:14;;;;;;;;;;;;;;;24.71;83.24;102317.28;5062395;28;19936;-71
2023/08/21 09:18:40;;;;;;;;;;;;;;;25.09;92.22;102321.22;5049188;28;19925;-71
2023/08/21 09:21:06;;;;;;;;;;;;;;;25.30;87.77;102318.69;5061161;28;19935;-71
2023/08/21 09:23:32;;;;;;;;;;;;;;;25.51;85.59;102324.59;5032381;28;20922;-71
2023/08/21 09:25:57;;;;;;;;;;;;;;;25.71;85.19;102319.44;5061653;28;19928;-71
2023/08/21 09:28:22;;;;;;;;;;;;;;;25.65;75.78;102317.44;5058445;28;20347;-71
2023/08/21 09:30:51;;;;;;;;;;;;;;;25.40;79.89;102312.09;5062270;28;19932;-71
2023/08/21 09:33:17;;;;;;;;;;;;;;;25.38;86.46;102316.94;5032115;28;19924;-71
2023/08/21 09:35:43;;;;;;;;;;;;;;;25.48;83.60;102312.06;5062679;28;20074;-71
2023/08/21 09:38:09;;;;;;;;;;;;;;;25.44;78.37;102311.56;5066020;28;19952;-71
2023/08/21 09:40:34;;;;;;;;;;;;;;;25.37;76.67;102316.06;5031785;28;19932;-71
2023/08/21 09:43:00;;;;;;;;;;;;;;;25.47;91.34;102315.00;5032203;28;19924;-72
2023/08/21 09:45:25;;;;;;;;;;;;;;;25.53;76.88;102315.09;5034430;28;19920;-72
2023/08/21 09:47:53;;;;;;;;;;;;;;;25.77;72.16;102315.09;5036473;28;19921;-71
2023/08/21 09:50:19;;;;;;;;;;;;;;;25.96;75.39;102319.22;5059710;28;20876;-71
2023/08/21 09:52:44;;;;;;;;;;;;;;;26.26;76.08;102311.91;5036126;28;20465;-73
2023/08/21 09:55:10;;;;;;;;;;;;;;;26.18;73.88;102309.22;5034138;28;19932;-71
2023/08/21 09:57:35;;;;;;;;;;;;;;;26.67;74.19;102312.44;5033303;28;20021;-71
2023/08/21 10:00:01;;;;;;;;;;;;;;;26.94;71.32;102319.19;5062866;28;20344;-71
2023/08/21 10:02:26;;;;;;;;;;;;;;;26.89;64.53;102313.41;5048710;28;19917;-72
2023/08/21 10:04:51;;;;;;;;;;;;;;;26.70;62.37;102309.31;5033892;28;19956;-71
2023/08/21 10:07:16;;;;;;;;;;;;;;;26.98;70.24;102312.25;5048974;28;19920;-70
2023/08/21 10:09:42;;;;;;;;;;;;;;;26.84;77.56;102294.72;5065541;28;19955;-70
2023/08/21 10:12:08;;;;;;;;;;;;;;;27.13;75.20;102301.19;5034866;28;20034;-70
2023/08/21 10:14:33;;;;;;;;;;;;;;;27.16;66.52;102299.94;5033709;28;20017;-70
2023/08/21 10:16:59;;;;;;;;;;;;;;;27.30;63.77;102296.25;5064147;28;20375;-70
2023/08/21 10:19:30;;;;;;;;;;;;;;;27.21;61.48;102289.19;5065393;28;19920;-70
2023/08/21 10:21:55;;;;;;;;;;;;;;;27.54;63.74;102295.03;5031923;28;19928;-70
2023/08/21 10:24:28;;;;;;;;;;;;;;;27.76;63.57;102280.38;5033805;28;19921;-70
2023/08/21 10:26:53;;;;;;;;;;;;;;;27.81;61.96;102284.25;5064231;28;19943;-69
2023/08/21 10:29:18;;;;;;;;;;;;;;;27.58;62.26;102287.22;5031706;28;19917;-70
2023/08/21 10:31:44;;;;;;;;;;;;;;;27.82;62.37;102269.38;5065334;28;19972;-70
2023/08/21 10:34:10;;;;;;;;;;;;;;;27.60;69.36;102287.03;5034967;28;20332;-72
2023/08/21 10:36:44;;;;;;;;;;;;;;;28.30;59.27;102287.13;5030682;28;19921;-70
2023/08/21 10:39:12;;;;;;;;;;;;;;;28.83;65.39;102275.53;5034632;28;20076;-71
2023/08/21 10:41:38;;;;;;;;;;;;;;;28.95;52.82;102281.31;5062789;28;19954;-70
2023/08/21 10:44:05;;;;;;;;;;;;;;;28.61;55.85;102273.88;5030965;28;19921;-71
2023/08/21 10:46:30;;;;;;;;;;;;;;;28.55;56.52;102278.34;5052021;28;19924;-70
2023/08/21 10:48:55;;;;;;;;;;;;;;;28.31;61.23;102280.56;5031936;28;22193;-69
2023/08/21 10:51:20;;;;;;;;;;;;;;;29.02;55.94;102284.06;5064418;28;20488;-70
2023/08/21 10:53:45;;;;;;;;;;;;;;;29.43;60.11;102285.88;5061314;28;20003;-70
2023/08/21 10:56:11;;;;;;;;;;;;;;;29.42;57.80;102294.38;5065641;28;19921;-70
2023/08/21 10:58:42;;;;;;;;;;;;;;;29.30;53.40;102297.72;5032670;28;20086;-72
2023/08/21 11:01:07;;;;;;;;;;;;;;;27.96;57.88;102294.31;5018277;28;20011;-71
2023/08/21 11:03:32;;;;;;;;;;;;;;;27.85;56.57;102298.47;5034383;28;20012;-70
2023/08/21 11:06:04;;;;;;;;;;;;;;;27.67;61.43;102296.22;5062508;28;20295;-70
2023/08/21 11:08:29;;;;;;;;;;;;;;;27.77;64.88;102302.25;5062290;28;20317;-70
2023/08/21 11:10:55;;;;;;;;;;;;;;;28.14;69.41;102296.59;5064855;28;20307;-70
2023/08/21 11:13:22;;;;;;;;;;;;;;;29.13;56.56;102297.31;5059347;28;20461;-70
2023/08/21 11:15:47;;;;;;;;;;;;;;;30.17;50.00;102290.56;5066339;28;20312;-70
2023/08/21 11:18:13;;;;;;;;;;;;;;;31.07;46.52;102286.16;5031543;28;19925;-73
2023/08/21 11:20:38;;;;;;;;;;;;;;;30.97;43.48;102286.63;5041066;28;19952;-74
2023/08/21 11:23:07;;;;;;;;;;;;;;;31.50;44.01;102285.47;5063752;28;19931;-74
2023/08/21 11:25:38;;;;;;;;;;;;;;;31.55;42.49;102287.56;5062235;28;20291;-73
2023/08/21 11:28:04;;;;;;;;;;;;;;;31.83;41.62;102284.34;5031978;28;19928;-71
2023/08/21 11:30:32;;;;;;;;;;;;;;;30.81;41.43;102285.22;5048346;28;19920;-72
2023/08/21 11:33:08;;;;;;;;;;;;;;;30.49;43.96;102280.44;5032734;28;19924;-72
2023/08/21 11:35:33;;;;;;;;;;;;;;;29.65;43.26;102276.53;5043140;28;20003;-72
2023/08/21 11:37:58;;;;;;;;;;;;;;;30.14;43.76;102274.38;5028716;28;20249;-71
2023/08/21 11:40:23;;;;;;;;;;;;;;;30.29;44.25;102272.19;5012578;28;20393;-71
2023/08/21 11:42:49;;;;;;;;;;;;;;;31.23;45.19;102276.47;5029245;28;20397;-73
2023/08/21 11:45:14;;;;;;;;;;;;;;;32.44;39.78;102267.06;5043624;28;21333;-71
2023/08/21 11:47:39;;;;;;;;;;;;;;;31.99;42.99;102276.50;5062887;28;20350;-71
2023/08/21 11:50:06;;;;;;;;;;;;;;;32.65;38.90;102268.50;5034062;28;19920;-72
2023/08/21 11:52:31;;;;;;;;;;;;;;;32.96;40.74;102262.97;5050996;28;20039;-72
2023/08/21 11:54:57;;;;;;;;;;;;;;;32.55;40.65;102257.94;5066162;28;19962;-72
2023/08/21 11:57:22;;;;;;;;;;;;;;;31.63;39.79;102262.31;5036930;28;19985;-73
2023/08/21 11:59:51;;;;;;;;;;;;;;;31.53;43.16;102260.00;5049393;28;20019;-73
2023/08/21 12:02:26;;;;;;;;;;;;;;;31.40;45.42;102260.13;5068339;28;19934;-73
2023/08/21 12:05:00;;;;;;;;;;;;;;;32.00;48.57;102254.06;5066867;28;19918;-72
2023/08/21 12:07:25;;;;;;;;;;;;;;;33.14;42.27;102253.69;5061685;28;19927;-73
2023/08/21 12:09:51;;;;;;;;;;;;;;;33.47;41.48;102252.34;5065209;28;19920;-73
2023/08/21 12:12:16;;;;;;;;;;;;;;;33.63;41.58;102253.56;5035847;28;21221;-73
2023/08/21 12:14:41;;;;;;;;;;;;;;;33.80;39.66;102251.75;5037438;28;20011;-73
2023/08/21 12:17:07;;;;;;;;;;;;;;;34.46;38.65;102252.69;5034468;28;20028;-73
2023/08/21 12:19:32;;;;;;;;;;;;;;;35.49;36.51;102262.97;5037861;28;19935;-73
2023/08/21 12:21:58;;;;;;;;;;;;;;;35.71;34.87;102256.59;5035415;28;20034;-73